Time;durP1;ratioP1;P1;durP2;ratioP2;P2;SDS_P1;SDS_P2;PMS_P1;PMS_P2;Temp;Humidity;BMP_temperature;BMP_pressure;BME280_temperature;BME280_humidity;BME280_pressure;Samples;Min_cycle;Max_cycle;Signal;HPM_P1;HPM_P2
2023/02/03 00:02:21;;;;;;;9.10;4.40;;;;;;;1.57;75.79;100974.88;4953014;28;20038;-81
2023/02/03 00:04:47;;;;;;;10.23;4.13;;;;;;;1.58;76.18;100988.97;4936078;28;20043;-80
2023/02/03 00:07:14;;;;;;;8.68;4.43;;;;;;;1.49;76.25;100993.03;4936923;28;20030;-82
2023/02/03 00:09:40;;;;;;;;;;;;;;;1.40;76.92;100994.44;4939293;28;20042;-82
2023/02/03 00:12:06;;;;;;;8.80;4.72;;;;;;;1.44;76.93;100995.13;4971956;28;19960;-81
2023/02/03 00:14:32;;;;;;;12.40;6.80;;;;;;;1.37;77.07;100999.09;4979325;28;20438;-83
2023/02/03 00:16:58;;;;;;;12.35;7.07;;;;;;;1.35;77.47;100999.16;4947598;28;20438;-82
2023/02/03 00:19:24;;;;;;;13.02;7.22;;;;;;;1.33;77.36;101001.06;4963409;28;20138;-81
2023/02/03 00:21:52;;;;;;;12.80;5.27;;;;;;;1.33;77.25;101016.94;4921528;28;20495;-82
2023/02/03 00:24:19;;;;;;;10.32;4.88;;;;;;;1.31;77.16;101018.88;4970536;28;20380;-81
2023/02/03 00:26:46;;;;;;;11.02;4.50;;;;;;;1.21;77.14;100997.34;4929781;28;20476;-82
2023/02/03 00:29:13;;;;;;;10.90;4.07;;;;;;;1.30;76.87;101009.19;4954411;28;20146;-81
2023/02/03 00:31:39;;;;;;;7.65;4.07;;;;;;;1.34;76.81;101013.38;4955873;28;20074;-80
2023/02/03 00:34:06;;;;;;;8.75;4.30;;;;;;;1.26;76.60;101005.03;4938372;28;20484;-81
2023/02/03 00:36:36;;;;;;;7.25;3.67;;;;;;;1.30;76.85;101008.34;4953648;28;20027;-82
2023/02/03 00:39:02;;;;;;;9.40;3.88;;;;;;;1.27;76.91;101009.41;4953729;28;20117;-83
2023/02/03 00:41:29;;;;;;;6.73;3.60;;;;;;;1.14;77.06;101009.25;4937905;28;20038;-82
2023/02/03 00:43:55;;;;;;;10.60;4.38;;;;;;;1.22;77.11;101009.66;4948409;28;20538;-82
2023/02/03 00:46:21;;;;;;;10.15;4.32;;;;;;;1.19;76.94;101001.03;4971069;28;20042;-80
2023/02/03 00:48:46;;;;;;;7.35;4.28;;;;;;;1.21;77.65;101015.06;4936983;28;20050;-82
2023/02/03 00:51:12;;;;;;;8.13;3.95;;;;;;;1.32;77.13;101011.78;4937130;28;20201;-83
2023/02/03 00:53:38;;;;;;;7.88;4.00;;;;;;;1.42;78.54;101004.94;4954055;28;20077;-83
2023/02/03 00:56:11;;;;;;;11.30;3.78;;;;;;;1.31;76.95;101010.91;4957630;28;20035;-84
2023/02/03 00:58:42;;;;;;;6.72;4.00;;;;;;;1.39;76.86;101010.44;4945832;28;20042;-84
2023/02/03 01:01:08;;;;;;;7.50;3.80;;;;;;;1.36;76.62;101010.63;4972639;28;20096;-83
2023/02/03 01:03:35;;;;;;;7.00;3.85;;;;;;;1.29;76.38;101010.16;4934643;28;20027;-84
2023/02/03 01:06:27;;;;;;;9.20;4.35;;;;;;;1.32;77.00;101025.84;4944610;29;20050;-82
2023/02/03 01:08:54;;;;;;;6.78;3.78;;;;;;;1.22;76.36;101022.06;4951192;28;20047;-82
2023/02/03 01:11:21;;;;;;;9.80;4.30;;;;;;;1.14;76.82;101014.56;4936574;28;20044;-81
2023/02/03 01:13:47;;;;;;;15.55;6.75;;;;;;;1.17;76.55;101029.41;4945360;28;20070;-83
2023/02/03 01:16:15;;;;;;;7.63;4.15;;;;;;;1.24;76.66;101036.03;4976868;28;20055;-80
2023/02/03 01:18:44;;;;;;;11.27;4.90;;;;;;;1.05;77.05;101023.94;4945785;28;20076;-80
2023/02/03 01:21:15;;;;;;;9.02;3.83;;;;;;;1.20;76.79;101026.59;4941363;28;20069;-80
2023/02/03 01:23:46;;;;;;;9.88;4.07;;;;;;;1.14;77.13;101026.97;4950427;28;20035;-81
2023/02/03 01:26:14;;;;;;;6.95;3.33;;;;;;;1.19;77.19;101025.72;4967027;28;20034;-83
2023/02/03 01:28:42;;;;;;;11.52;4.30;;;;;;;1.07;77.33;101020.31;4944051;28;20153;-85
2023/02/03 01:31:11;;;;;;;7.75;3.67;;;;;;;0.95;77.78;101020.09;4941612;28;20046;-81
2023/02/03 01:33:39;;;;;;;7.15;3.80;;;;;;;0.99;78.14;101018.13;4970790;28;20049;-84
2023/02/03 01:36:11;;;;;;;6.78;3.88;;;;;;;0.91;78.22;101017.72;4956363;28;20466;-81
2023/02/03 01:38:37;;;;;;;7.50;3.47;;;;;;;0.90;78.19;101019.53;4946502;28;20034;-82
2023/02/03 01:41:02;;;;;;;8.30;4.20;;;;;;;0.93;78.05;101019.34;4956766;28;20499;-82
2023/02/03 01:43:33;;;;;;;7.38;3.60;;;;;;;0.80;78.10;101007.78;4939662;28;20058;-81
2023/02/03 01:45:59;;;;;;;7.80;3.72;;;;;;;0.86;78.23;101012.69;4970664;28;20031;-80
2023/02/03 01:48:26;;;;;;;;;;;;;;;0.80;78.35;101013.91;4940388;28;20121;-81
2023/02/03 01:50:53;;;;;;;6.90;3.40;;;;;;;0.82;78.35;101013.84;4973077;28;19910;-81
2023/02/03 01:53:18;;;;;;;7.82;3.90;;;;;;;0.84;78.25;101019.88;4923729;28;20112;-82
2023/02/03 01:55:47;;;;;;;7.20;3.90;;;;;;;0.76;77.91;101020.31;4956360;28;20463;-81
2023/02/03 01:58:19;;;;;;;8.95;3.92;;;;;;;0.80;77.90;101015.72;4972282;28;20321;-81
2023/02/03 02:00:48;;;;;;;6.40;3.58;;;;;;;0.82;78.12;101029.72;4970713;28;20046;-82
2023/02/03 02:03:14;;;;;;;8.40;3.75;;;;;;;0.73;78.05;101009.09;4952452;28;20023;-82
2023/02/03 02:05:52;;;;;;;6.40;3.70;;;;;;;0.64;78.12;101018.41;4939917;28;20081;-81
2023/02/03 02:08:18;;;;;;;7.10;3.92;;;;;;;0.69;78.58;101015.50;4956533;28;20050;-82
2023/02/03 02:10:45;;;;;;;8.38;4.07;;;;;;;0.70;78.04;101030.41;4950520;28;20026;-81
2023/02/03 02:13:11;;;;;;;8.35;4.13;;;;;;;0.71;78.39;101030.34;4954115;28;20126;-82
2023/02/03 02:16:04;;;;;;;7.17;3.50;;;;;;;0.74;78.07;101019.56;4955571;28;20085;-83
2023/02/03 02:18:36;;;;;;;10.88;4.28;;;;;;;0.77;78.02;101029.13;4972325;28;20802;-80
2023/02/03 02:21:32;;;;;;;8.73;3.90;;;;;;;0.78;77.97;101028.19;4955900;28;20344;-82
2023/02/03 02:24:22;;;;;;;7.20;3.58;;;;;;;0.76;78.08;101032.72;4967437;28;20097;-83
2023/02/03 02:26:53;;;;;;;7.72;3.85;;;;;;;0.81;77.65;101028.84;4954854;28;20034;-83
2023/02/03 02:29:24;;;;;;;10.15;4.00;;;;;;;0.80;77.59;101035.09;4972823;28;20122;-80
2023/02/03 02:31:53;;;;;;;6.57;3.80;;;;;;;0.82;77.90;101033.22;4961035;28;20053;-82
2023/02/03 02:34:34;;;;;;;8.18;4.30;;;;;;;0.78;77.33;101014.94;4974827;28;20054;-80
2023/02/03 02:37:25;;;;;;;11.90;4.47;;;;;;;0.93;77.07;101035.22;4978082;28;20027;-82
2023/02/03 02:40:07;;;;;;;13.80;4.50;;;;;;;0.84;77.23;101022.53;4941458;28;20027;-81
2023/02/03 02:42:33;;;;;;;7.90;4.32;;;;;;;0.93;76.88;101023.78;4977282;28;20062;-83
2023/02/03 02:45:05;;;;;;;8.27;3.97;;;;;;;0.83;77.04;101018.19;4966360;28;20053;-82
2023/02/03 02:47:31;;;;;;;8.27;4.32;;;;;;;0.80;77.21;101008.63;4939242;28;20033;-82
2023/02/03 02:50:08;;;;;;;8.53;4.17;;;;;;;0.89;77.14;101017.84;4939531;28;20039;-82
2023/02/03 02:52:37;;;;;;;6.88;3.92;;;;;;;0.87;77.18;101017.06;4925149;28;20137;-84
2023/02/03 02:55:14;;;;;;;9.00;3.83;;;;;;;0.78;76.75;100999.06;4953950;28;20038;-82
2023/02/03 02:57:40;;;;;;;7.78;3.65;;;;;;;0.91;76.46;101015.91;4955636;28;20046;-83
2023/02/03 03:00:06;;;;;;;8.18;4.28;;;;;;;0.95;76.45;101029.84;4937831;29;20580;-81
2023/02/03 03:02:35;;;;;;;7.70;4.32;;;;;;;0.99;76.40;101024.28;4945146;28;20133;-83
2023/02/03 03:05:04;;;;;;;10.23;5.32;;;;;;;1.05;76.15;101034.53;4967581;28;20126;-83
2023/02/03 03:07:30;;;;;;;10.38;5.57;;;;;;;0.97;76.69;101036.75;4944980;28;20105;-83
2023/02/03 03:09:59;;;;;;;13.10;5.38;;;;;;;0.95;77.10;101038.63;4947164;28;20086;-84
2023/02/03 03:12:32;;;;;;;11.80;4.68;;;;;;;1.00;77.48;101041.84;4948703;28;20031;-82
2023/02/03 03:15:13;;;;;;;8.02;3.72;;;;;;;0.93;77.84;101034.38;4946432;28;20422;-82
2023/02/03 03:18:06;;;;;;;7.35;4.25;;;;;;;0.95;78.00;101028.03;4965280;28;20089;-81
2023/02/03 03:20:33;;;;;;;9.90;4.75;;;;;;;0.99;78.33;101048.09;4954708;28;20047;-83
2023/02/03 03:23:02;;;;;;;9.85;5.65;;;;;;;0.99;78.78;101055.22;4945152;29;20442;-81
2023/02/03 03:25:51;;;;;;;13.02;5.90;;;;;;;1.01;78.80;101062.13;4934905;29;20038;-82
2023/02/03 03:28:23;;;;;;;10.90;6.07;;;;;;;0.87;78.82;101046.19;4958618;28;20070;-83
2023/02/03 03:30:49;;;;;;;14.18;6.00;;;;;;;1.04;78.74;101069.88;4947338;28;20027;-82
2023/02/03 03:33:16;;;;;;;10.82;5.47;;;;;;;0.97;78.85;101068.53;4956594;28;20054;-82
2023/02/03 03:35:47;;;;;;;11.00;5.63;;;;;;;1.00;78.53;101063.03;4939203;28;20065;-81
2023/02/03 03:38:18;;;;;;;13.43;6.15;;;;;;;1.05;77.75;101068.94;4950603;28;20472;-81
2023/02/03 03:40:57;;;;;;;10.30;5.38;;;;;;;1.02;77.26;101074.41;4938480;28;20050;-84
2023/02/03 03:43:29;;;;;;;10.23;4.65;;;;;;;0.90;77.07;101067.19;4952439;28;20162;-82
2023/02/03 03:46:01;;;;;;;9.20;4.30;;;;;;;0.91;76.61;101058.28;4952311;28;20066;-83
2023/02/03 03:48:41;;;;;;;8.30;3.75;;;;;;;0.92;76.36;101070.59;4944430;28;20472;-81
2023/02/03 03:51:21;;;;;;;6.53;3.65;;;;;;;0.95;76.09;101091.59;4955139;28;20418;-82
2023/02/03 03:53:50;;;;;;;7.57;3.40;;;;;;;0.91;75.85;101081.25;4957395;28;20042;-82
2023/02/03 03:56:21;;;;;;;11.95;3.90;;;;;;;0.81;75.87;101073.84;4957794;28;20060;-81
2023/02/03 03:58:48;;;;;;;7.72;3.90;;;;;;;1.00;75.74;101104.56;4943391;28;20043;-84
2023/02/03 04:01:14;;;;;;;8.50;4.30;;;;;;;1.04;75.93;101104.28;4953363;28;20042;-83
2023/02/03 04:03:47;;;;;;;8.57;3.95;;;;;;;0.95;75.90;101091.59;4940224;28;20078;-84
2023/02/03 04:06:14;;;;;;;6.68;4.00;;;;;;;0.90;75.98;101091.00;4953600;28;20061;-81
2023/02/03 04:08:41;;;;;;;7.60;4.03;;;;;;;0.94;76.31;101100.47;4968230;28;20039;-82
2023/02/03 04:11:06;;;;;;;8.70;4.55;;;;;;;0.92;76.33;101101.53;4937476;28;20053;-82
2023/02/03 04:13:33;;;;;;;11.17;4.93;;;;;;;0.83;76.43;101077.25;4953253;28;20380;-84
2023/02/03 04:16:01;;;;;;;11.27;5.45;;;;;;;0.68;76.56;101085.22;4969321;28;20282;-81
2023/02/03 04:18:27;;;;;;;8.90;4.80;;;;;;;0.60;77.34;101096.25;4936768;28;20166;-82
2023/02/03 04:20:56;;;;;;;9.48;5.40;;;;;;;0.77;77.27;101109.41;4951921;28;20035;-87
2023/02/03 04:23:21;;;;;;;11.85;6.20;;;;;;;0.69;77.45;101105.47;4960935;28;20110;-83
2023/02/03 04:25:50;;;;;;;13.73;6.83;;;;;;;0.81;76.95;101107.41;4939133;28;20081;-84
2023/02/03 04:28:15;;;;;;;14.85;7.13;;;;;;;0.55;77.38;101088.56;4953658;28;20035;-82
2023/02/03 04:30:46;;;;;;;14.10;7.47;;;;;;;0.59;77.76;101100.69;4937490;28;20502;-83
2023/02/03 04:33:15;;;;;;;17.45;7.32;;;;;;;0.63;77.87;101119.88;4936799;28;20671;-84
2023/02/03 04:35:48;;;;;;;15.38;7.07;;;;;;;0.47;78.43;101121.66;4956041;28;20042;-83
2023/02/03 04:38:14;;;;;;;17.13;7.18;;;;;;;0.53;77.95;101131.94;4957987;28;20049;-84
2023/02/03 04:40:48;;;;;;;12.98;7.05;;;;;;;0.61;78.13;101145.59;4952724;28;20121;-83
2023/02/03 04:44:21;;;;;;;15.95;6.45;;;;;;;0.54;78.23;101154.78;4968555;28;20380;-81
2023/02/03 04:46:50;;;;;;;12.38;6.00;;;;;;;0.40;78.02;101123.81;4952652;28;20498;-85
2023/02/03 04:49:16;;;;;;;13.23;6.55;;;;;;;0.28;78.43;101129.75;4957717;28;20022;-83
2023/02/03 04:51:43;;;;;;;11.77;6.40;;;;;;;0.25;78.63;101129.94;4957848;28;20150;-84
2023/02/03 04:54:11;;;;;;;18.95;7.13;;;;;;;0.42;78.50;101151.03;4973780;28;20035;-83
2023/02/03 04:56:37;;;;;;;12.55;6.32;;;;;;;0.34;78.53;101140.03;4980665;28;20034;-82
2023/02/03 04:59:03;;;;;;;13.82;6.22;;;;;;;0.34;78.49;101145.31;4932973;28;20031;-82
2023/02/03 05:01:29;;;;;;;12.05;6.00;;;;;;;0.35;78.53;101147.00;4940659;28;20026;-82
2023/02/03 05:03:54;;;;;;;14.13;6.57;;;;;;;0.51;78.30;101161.09;4936900;28;20352;-81
2023/02/03 05:06:28;;;;;;;16.63;6.90;;;;;;;0.33;78.54;101140.97;4958228;28;20337;-82
2023/02/03 05:08:54;;;;;;;17.17;6.93;;;;;;;0.52;78.54;101165.47;4928328;28;20134;-83
2023/02/03 05:11:20;;;;;;;13.85;6.80;;;;;;;0.35;78.75;101157.59;4970687;28;20035;-84
2023/02/03 05:13:46;;;;;;;15.95;6.72;;;;;;;0.20;79.23;101144.25;4960980;28;20117;-83
2023/02/03 05:16:15;;;;;;;9.33;5.30;;;;;;;0.12;79.18;101145.63;4958013;28;20431;-85
2023/02/03 05:18:42;;;;;;;12.43;5.43;;;;;;;0.03;79.78;101154.91;4941269;28;20027;-85
2023/02/03 05:21:08;;;;;;;8.75;4.90;;;;;;;-0.02;79.90;101151.66;4956175;28;20046;-83
2023/02/03 05:23:33;;;;;;;12.48;5.72;;;;;;;-0.09;79.84;101139.69;4940056;28;20109;-85
2023/02/03 05:26:01;;;;;;;13.98;5.65;;;;;;;0.04;79.86;101174.25;4943088;28;20050;-84
2023/02/03 05:28:28;;;;;;;15.57;6.30;;;;;;;-0.18;79.70;101134.88;4943416;29;20019;-83
2023/02/03 05:30:56;;;;;;;14.32;6.78;;;;;;;0.01;79.58;101167.34;4928861;29;20348;-83
2023/02/03 05:33:22;;;;;;;17.25;7.20;;;;;;;0.12;79.32;101174.72;4947443;28;20051;-84
2023/02/03 05:35:50;;;;;;;14.73;6.93;;;;;;;0.22;79.31;101188.28;4953701;28;20039;-85
2023/02/03 05:38:16;;;;;;;10.48;5.80;;;;;;;0.18;78.98;101184.94;4968145;28;20294;-84
2023/02/03 05:43:29;;;;;;;14.77;6.05;;;;;;;0.36;78.84;101209.56;4954130;28;20053;-82
2023/02/03 05:46:00;;;;;;;15.00;5.75;;;;;;;0.37;78.61;101200.69;4931935;29;20038;-85
2023/02/03 05:48:28;;;;;;;22.17;5.97;;;;;;;0.71;77.92;101204.16;4954197;29;20047;-84
2023/02/03 05:50:57;;;;;;;15.87;5.33;;;;;;;0.96;76.48;101204.50;4959357;29;20041;-85
2023/02/03 05:53:23;;;;;;;15.38;6.40;;;;;;;1.29;75.45;101221.22;4949968;28;20034;-83
2023/02/03 05:55:49;;;;;;;13.38;6.90;;;;;;;1.33;74.96;101217.44;4950081;28;20141;-83
2023/02/03 05:58:16;;;;;;;14.67;5.57;;;;;;;1.17;75.14;101212.16;4939217;28;20425;-83
2023/02/03 06:00:42;;;;;;;15.10;6.90;;;;;;;1.00;75.36;101216.63;4952916;28;20423;-82
2023/02/03 06:03:08;;;;;;;18.52;7.32;;;;;;;0.99;75.56;101211.44;4953395;28;20139;-85
2023/02/03 06:05:39;;;;;;;15.98;8.05;;;;;;;0.81;76.15;101205.34;4951201;28;20457;-82
2023/02/03 06:08:06;;;;;;;14.23;7.13;;;;;;;0.74;76.40;101214.56;4954762;28;20141;-84
2023/02/03 06:10:33;;;;;;;20.35;7.25;;;;;;;0.82;76.16;101210.56;4959510;28;20082;-86
2023/02/03 06:13:08;;;;;;;13.27;6.47;;;;;;;0.90;75.70;101212.78;4962023;29;20057;-85
2023/02/03 06:15:35;;;;;;;22.10;6.28;;;;;;;1.00;76.07;101206.03;4961320;28;20031;-83
2023/02/03 06:18:00;;;;;;;14.88;7.20;;;;;;;0.98;76.11;101218.53;4938256;29;20038;-84
2023/02/03 06:20:33;;;;;;;16.83;7.93;;;;;;;1.04;76.18;101212.88;4950906;28;20027;-83
2023/02/03 06:23:00;;;;;;;22.42;7.55;;;;;;;1.11;75.28;101200.13;4935970;28;20304;-84
2023/02/03 06:25:26;;;;;;;16.42;6.88;;;;;;;1.03;75.13;101205.00;4951492;28;20047;-83
2023/02/03 06:27:54;;;;;;;15.88;6.97;;;;;;;1.02;74.58;101208.59;4937038;29;20104;-82
2023/02/03 06:30:22;;;;;;;13.77;6.28;;;;;;;1.06;74.67;101199.56;4941535;29;20031;-83
2023/02/03 06:32:50;;;;;;;13.93;6.72;;;;;;;1.10;74.96;101216.97;4944106;28;20051;-83
2023/02/03 06:35:17;;;;;;;11.27;5.70;;;;;;;1.22;74.56;101216.28;4958464;28;20042;-82
2023/02/03 06:37:43;;;;;;;16.60;7.80;;;;;;;1.42;73.98;101219.56;4981459;28;20035;-82
2023/02/03 06:59:35;;;;;;;17.00;5.20;;;;;;;6.21;60.08;101258.41;4981879;28;20145;-84
2023/02/03 07:02:04;;;;;;;13.15;4.55;;;;;;;7.72;54.31;101237.34;4994188;28;20039;-83
2023/02/03 07:04:30;;;;;;;10.23;4.28;;;;;;;8.96;49.87;101233.84;4992481;28;20049;-81
2023/02/03 07:06:56;;;;;;;12.63;4.53;;;;;;;10.22;46.23;101233.06;4977588;28;20037;-83
2023/02/03 07:09:23;;;;;;;7.70;4.05;;;;;;;10.66;43.95;101236.09;4980116;28;20329;-85
2023/02/03 07:11:54;;;;;;;10.32;3.75;;;;;;;11.50;42.45;101237.75;4993532;28;20046;-84
2023/02/03 07:14:19;;;;;;;8.52;3.55;;;;;;;12.16;41.08;101214.09;4993136;28;20073;-86
2023/02/03 07:16:46;;;;;;;11.13;4.00;;;;;;;12.84;39.38;101241.09;5012218;28;20056;-82
2023/02/03 07:19:27;;;;;;;7.63;4.00;;;;;;;13.12;37.89;101232.78;5011031;28;20045;-82
2023/02/03 07:21:55;;;;;;;9.65;4.05;;;;;;;14.06;36.49;101237.00;4993993;28;20057;-84
2023/02/03 07:24:20;;;;;;;10.25;4.53;;;;;;;13.99;36.29;101237.88;4991833;28;20089;-81
2023/02/03 07:29:27;;;;;;;14.50;4.97;;;;;;;14.62;35.45;101226.28;2923553;26;20071;-85
2023/02/03 07:31:53;;;;;;;12.20;4.85;;;;;;;14.50;34.72;101216.84;4990308;28;20025;-85
2023/02/03 07:34:19;;;;;;;10.90;5.15;;;;;;;15.38;33.36;101223.91;5002848;28;20053;-85
2023/02/03 07:36:45;;;;;;;;;;;;;;;15.79;32.63;101232.63;5001283;28;20105;-86
2023/02/03 07:39:17;;;;;;;11.52;5.18;;;;;;;15.66;32.60;101202.53;5018443;28;19917;-87
2023/02/03 07:41:44;;;;;;;16.02;5.43;;;;;;;16.82;31.42;101212.16;5014652;28;20029;-86
2023/02/03 07:44:11;;;;;;;10.75;4.35;;;;;;;16.08;32.16;101214.75;5018666;28;20033;-86
2023/02/03 07:46:45;;;;;;;10.63;4.00;;;;;;;16.03;31.73;101214.47;5008549;28;20074;-88
2023/02/03 07:49:17;;;;;;;6.03;3.53;;;;;;;16.30;31.02;101198.66;5023917;28;20038;-84
2023/02/03 07:51:52;;;;;;;6.95;4.15;;;;;;;16.36;31.36;101209.56;5027001;28;20187;-88
2023/02/03 07:57:42;;;;;;;18.23;4.80;;;;;;;16.32;31.33;101208.28;4991133;28;20041;-89
2023/02/03 08:00:22;;;;;;;9.77;3.97;;;;;;;17.62;29.33;101228.53;5008644;28;20037;-86
2023/02/03 08:02:53;;;;;;;13.38;4.57;;;;;;;17.58;29.51;101219.09;5023217;28;20042;-86
2023/02/03 08:05:40;;;;;;;11.02;4.32;;;;;;;18.66;28.24;101222.47;4986922;28;20124;-85
2023/02/03 08:08:12;;;;;;;12.05;5.40;;;;;;;18.86;28.08;101245.25;5032261;28;20113;-89
2023/02/03 08:10:40;;;;;;;8.57;4.30;;;;;;;19.34;27.70;101247.19;5020594;28;20051;-85
2023/02/03 08:13:07;;;;;;;9.07;4.38;;;;;;;18.37;27.88;101248.91;5034761;28;20033;-84
2023/02/03 08:15:48;;;;;;;9.27;4.30;;;;;;;18.56;27.91;101252.81;5041713;28;20021;-86
2023/02/03 08:18:27;;;;;;;10.32;4.22;;;;;;;18.86;27.33;101248.00;5025174;28;20048;-88
2023/02/03 08:20:52;;;;;;;10.40;3.72;;;;;;;17.07;29.42;101275.16;5005684;28;20048;-86
2023/02/03 08:23:21;;;;;;;8.38;3.45;;;;;;;17.57;29.23;101279.94;5007552;28;20037;-84
2023/02/03 08:25:52;;;;;;;16.63;3.65;;;;;;;18.08;27.95;101258.09;5005690;28;20075;-85
2023/02/03 08:28:45;;;;;;;6.47;3.40;;;;;;;17.97;28.01;101278.50;5018988;28;20118;-90
2023/02/03 08:31:13;;;;;;;7.55;3.60;;;;;;;18.26;28.29;101284.81;5019345;28;20101;-84
2023/02/03 08:33:50;;;;;;;9.93;3.65;;;;;;;19.73;27.01;101272.88;5042417;28;20053;-90
2023/02/03 08:36:19;;;;;;;10.90;3.80;;;;;;;18.27;28.17;101287.34;5236138;22;20076;-86
2023/02/03 08:38:57;;;;;;;9.13;3.60;;;;;;;18.53;28.06;101288.59;4995396;28;20098;-89
2023/02/03 08:41:54;;;;;;;9.77;3.60;;;;;;;19.29;27.64;101298.72;5013868;28;20064;-86
2023/02/03 08:47:09;;;;;;;9.48;3.50;;;;;;;20.26;25.16;101255.75;5480326;22;20072;-88
2023/02/03 08:49:39;;;;;;;11.02;4.40;;;;;;;19.70;25.90;101251.50;5050377;28;20041;-87
2023/02/03 08:52:06;;;;;;;14.15;4.70;;;;;;;20.31;25.07;101264.97;5027698;28;20113;-83
2023/02/03 08:54:35;;;;;;;12.75;3.90;;;;;;;20.69;24.70;101272.50;5010040;28;20053;-87
2023/02/03 08:57:01;;;;;;;16.92;4.90;;;;;;;22.37;23.12;101274.22;5044681;28;20029;-88
2023/02/03 08:59:35;;;;;;;16.45;3.50;;;;;;;22.91;22.28;101286.31;5032146;28;20059;-89
2023/02/03 09:02:42;;;;;;;8.87;3.40;;;;;;;22.53;22.29;101289.25;5032790;28;20049;-93
2023/02/03 09:08:27;;;;;;;8.60;3.92;;;;;;;23.35;21.27;101286.25;5027875;28;20053;-86
2023/02/03 09:10:56;;;;;;;17.48;4.50;;;;;;;25.30;20.23;101286.44;5020198;28;20104;-86
2023/02/03 09:13:22;;;;;;;10.60;3.95;;;;;;;24.72;20.16;101290.09;5029851;28;20033;-88
2023/02/03 09:15:50;;;;;;;7.53;3.47;;;;;;;25.04;20.07;101269.38;5018128;28;20034;-84
2023/02/03 09:18:19;;;;;;;6.97;3.80;;;;;;;25.10;19.50;101283.22;5031780;28;20064;-88
2023/02/03 09:20:44;;;;;;;9.93;3.95;;;;;;;25.89;19.08;101284.31;5008417;28;20033;-84
2023/02/03 09:23:10;;;;;;;13.05;3.95;;;;;;;25.66;19.16;101273.38;5003885;28;20034;-83
2023/02/03 09:25:36;;;;;;;8.80;3.75;;;;;;;25.23;19.40;101274.75;5021302;28;20036;-86
2023/02/03 09:28:03;;;;;;;9.98;3.67;;;;;;;25.28;19.57;101269.34;5021349;28;20060;-83
2023/02/03 09:30:30;;;;;;;14.68;4.38;;;;;;;26.29;18.59;101272.31;5009803;28;20044;-82
2023/02/03 09:33:03;;;;;;;9.77;3.47;;;;;;;25.13;18.98;101286.34;5022535;28;20466;-86
2023/02/03 09:35:29;;;;;;;10.40;3.40;;;;;;;25.74;18.74;101292.25;5025066;28;20041;-79
2023/02/03 09:37:55;;;;;;;9.23;4.35;;;;;;;25.16;18.71;101274.00;5024254;28;20648;-84
2023/02/03 09:40:27;;;;;;;14.43;4.38;;;;;;;27.10;17.50;101271.00;4990321;28;20055;-83
2023/02/03 09:43:17;;;;;;;10.95;3.92;;;;;;;28.24;16.30;101279.41;5019462;28;20061;-81
2023/02/03 09:45:43;;;;;;;8.40;3.50;;;;;;;27.47;16.47;101265.69;5018890;28;20034;-84
2023/02/03 09:48:24;;;;;;;6.10;3.00;;;;;;;28.23;16.43;101267.53;5014370;28;20053;-90
2023/02/03 09:50:50;;;;;;;6.00;3.20;;;;;;;27.29;17.06;101266.84;5011008;28;20037;-86
2023/02/03 09:53:30;;;;;;;9.80;4.22;;;;;;;28.90;15.90;101265.22;5008036;28;20045;-88
2023/02/03 09:55:56;;;;;;;8.60;3.60;;;;;;;29.60;15.34;101263.84;5001977;28;20479;-85
2023/02/03 09:58:22;;;;;;;16.70;3.78;;;;;;;29.07;15.34;101260.34;5000560;28;20037;-88
2023/02/03 10:00:51;;;;;;;6.18;3.03;;;;;;;28.45;15.90;101263.81;4997813;28;20104;-87
2023/02/03 10:03:46;;;;;;;4.82;3.10;;;;;;;29.07;14.39;101254.81;5017236;28;20037;-90
2023/02/03 10:06:35;;;;;;;7.70;2.90;;;;;;;29.37;14.20;101261.56;5017387;28;20482;-84
2023/02/03 10:09:33;;;;;;;6.72;3.10;;;;;;;28.00;15.14;101252.13;5033149;28;20478;-85
2023/02/03 10:12:10;;;;;;;6.95;2.90;;;;;;;28.25;14.66;101253.44;5015280;28;20046;-82
2023/02/03 10:14:54;;;;;;;9.02;2.60;;;;;;;25.59;16.72;101256.16;5026086;28;20113;-81
2023/02/03 10:17:40;;;;;;;5.72;3.30;;;;;;;23.86;18.48;101249.25;5038657;28;20041;-86
2023/02/03 10:20:18;;;;;;;7.25;2.97;;;;;;;24.84;18.15;101249.66;5013462;28;20042;-88
2023/02/03 10:23:11;;;;;;;13.07;3.40;;;;;;;26.76;16.93;101259.22;5027789;28;20481;-88
2023/02/03 10:28:32;;;;;;;;;;;;;;;26.44;16.55;101257.09;5045125;22;20049;-88
2023/02/03 10:33:35;;;;;;;8.45;2.55;;;;;;;27.77;15.71;101226.50;4856870;26;20112;-83
2023/02/03 10:36:18;;;;;;;6.32;2.60;;;;;;;28.96;14.72;101228.16;5002348;28;20420;-94
2023/02/03 10:39:22;;;;;;;11.45;3.10;;;;;;;30.30;14.00;101241.19;4977272;28;20031;-80
2023/02/03 10:41:49;;;;;;;5.53;2.80;;;;;;;30.34;13.80;101222.88;4981023;28;20379;-82
2023/02/03 10:44:18;;;;;;;7.18;3.05;;;;;;;28.78;14.71;101232.25;5001291;28;20034;-90
2023/02/03 10:49:18;;;;;;;8.35;3.00;;;;;;;27.49;15.96;101221.25;5007352;28;20046;-85
2023/02/03 10:54:32;;;;;;;7.82;2.92;;;;;;;28.92;15.10;101229.81;4997022;28;19924;-89
2023/02/03 10:57:22;;;;;;;9.68;3.30;;;;;;;28.57;15.25;101209.16;4999494;28;20038;-90
2023/02/03 11:00:31;;;;;;;8.30;3.97;;;;;;;28.77;14.69;101212.03;5003595;28;20076;-89
2023/02/03 11:03:08;;;;;;;7.20;2.97;;;;;;;29.27;14.42;101229.16;5077407;23;20046;-88
2023/02/03 11:06:23;;;;;;;7.28;2.90;;;;;;;28.94;14.55;101228.44;5068326;23;20086;-88
2023/02/03 11:08:50;;;;;;;9.52;2.88;;;;;;;27.51;15.77;101211.63;5036076;23;20057;-85
2023/02/03 11:11:27;;;;;;;4.80;2.92;;;;;;;26.76;16.55;101198.56;5012664;28;20046;-88
2023/02/03 11:13:55;;;;;;;7.63;3.17;;;;;;;24.55;17.98;101211.09;5013069;28;20084;-86
2023/02/03 11:16:24;;;;;;;7.93;3.03;;;;;;;23.99;19.00;101228.97;4993817;28;20085;-88
2023/02/03 11:18:57;;;;;;;8.02;2.90;;;;;;;24.53;18.24;101229.75;5003713;28;20030;-88
2023/02/03 11:22:09;;;;;;;9.43;2.90;;;;;;;23.77;18.47;101240.53;5009903;28;20049;-91
2023/02/03 11:24:39;;;;;;;4.68;2.63;;;;;;;21.04;20.83;101229.31;5005649;28;20041;-84
2023/02/03 11:27:15;;;;;;;7.35;3.30;;;;;;;19.74;22.77;101209.13;4995833;28;20050;-83
2023/02/03 11:29:44;;;;;;;;;;;;;;;19.13;24.22;101235.34;5017369;28;20029;-85
2023/02/03 11:32:26;;;;;;;6.85;3.05;;;;;;;20.53;21.82;101219.13;5002148;28;19913;-85
2023/02/03 11:35:32;;;;;;;6.95;3.10;;;;;;;21.73;21.34;101232.34;5003890;28;20133;-86
2023/02/03 11:38:00;;;;;;;5.28;2.50;;;;;;;22.84;19.88;101225.25;5003379;28;20045;-86
2023/02/03 11:43:47;;;;;;;7.25;2.90;;;;;;;17.85;25.10;101220.22;5023258;28;20032;-84
2023/02/03 11:46:37;;;;;;;6.13;3.10;;;;;;;17.08;26.54;101246.13;5000011;28;20038;-85
2023/02/03 11:49:38;;;;;;;8.82;3.40;;;;;;;15.71;28.42;101242.69;5013729;28;20658;-88
2023/02/03 11:52:12;;;;;;;9.57;3.80;;;;;;;16.03;28.21;101222.63;5025964;28;20045;-84
2023/02/03 11:55:16;;;;;;;9.48;3.50;;;;;;;17.27;26.00;101244.69;5021724;28;20084;-86
2023/02/03 11:57:45;;;;;;;;;;;;;;;18.82;24.15;101240.41;5023984;28;20046;-83
2023/02/03 12:00:33;;;;;;;6.55;2.70;;;;;;;19.10;23.67;101238.47;5018609;28;19920;-86
2023/02/03 12:03:19;;;;;;;3.88;2.42;;;;;;;19.88;22.77;101229.91;5022729;28;20126;-86
2023/02/03 12:06:20;;;;;;;6.43;2.88;;;;;;;19.26;23.40;101222.81;5030249;28;20098;-88
2023/02/03 12:09:24;;;;;;;5.38;2.58;;;;;;;18.30;24.25;101229.78;4913550;29;20520;-83
2023/02/03 12:12:21;;;;;;;7.72;2.63;;;;;;;18.22;24.84;101229.13;4927772;29;20120;-85
2023/02/03 12:15:10;;;;;;;10.27;3.28;;;;;;;17.67;25.51;101229.63;4901454;29;20043;-88
2023/02/03 12:17:58;;;;;;;6.25;2.95;;;;;;;16.62;26.52;101214.56;4997774;28;20499;-87
2023/02/03 12:20:26;;;;;;;5.57;2.90;;;;;;;16.17;27.73;101212.81;5016621;28;20104;-86
2023/02/03 12:23:19;;;;;;;10.43;3.03;;;;;;;15.49;28.76;101222.66;5012774;28;20095;-83
2023/02/03 12:25:57;;;;;;;7.40;3.00;;;;;;;14.83;29.59;101225.72;5001521;28;20524;-84
2023/02/03 12:32:09;;;;;;;4.65;2.33;;;;;;;13.67;30.97;101229.59;5012032;28;20091;-84
2023/02/03 12:35:15;;;;;;;7.75;2.80;;;;;;;13.31;31.56;101223.59;5010854;28;20084;-82
2023/02/03 12:38:04;;;;;;;7.20;3.15;;;;;;;12.54;33.06;101228.13;4993755;28;20030;-85
2023/02/03 12:40:53;;;;;;;8.15;4.18;;;;;;;12.11;34.14;101232.59;4997967;28;20038;-84
2023/02/03 12:43:38;;;;;;;11.63;3.13;;;;;;;11.66;34.94;101233.50;4998215;28;20042;-83
2023/02/03 12:46:30;;;;;;;8.27;3.20;;;;;;;11.52;35.38;101249.22;4976402;28;20148;-85